sensor_id;sensor_type;location;lat;lon;timestamp;pressure;altitude;pressure_sealevel;temperature;humidity
26436;BME280;15351;52.408;16.826;2023-03-25T00:01:19;99697.61;;;11.07;79.60
26436;BME280;15351;52.408;16.826;2023-03-25T00:03:56;99692.20;;;11.06;79.75
26436;BME280;15351;52.408;16.826;2023-03-25T00:06:25;99689.50;;;11.06;79.35
26436;BME280;15351;52.408;16.826;2023-03-25T00:08:54;99683.91;;;11.01;79.19
26436;BME280;15351;52.408;16.826;2023-03-25T00:11:22;99674.31;;;10.96;79.19
26436;BME280;15351;52.408;16.826;2023-03-25T00:13:48;99672.77;;;10.91;79.23
26436;BME280;15351;52.408;16.826;2023-03-25T00:16:28;99667.02;;;10.89;79.36
26436;BME280;15351;52.408;16.826;2023-03-25T00:21:56;99664.94;;;10.93;79.15
26436;BME280;15351;52.408;16.826;2023-03-25T00:24:35;99665.15;;;10.87;79.03
26436;BME280;15351;52.408;16.826;2023-03-25T00:30:06;99665.86;;;10.81;79.19
26436;BME280;15351;52.408;16.826;2023-03-25T00:32:34;99658.96;;;10.80;79.25
26436;BME280;15351;52.408;16.826;2023-03-25T00:35:01;99651.54;;;10.80;79.38
26436;BME280;15351;52.408;16.826;2023-03-25T00:37:37;99652.89;;;10.83;79.15
26436;BME280;15351;52.408;16.826;2023-03-25T00:40:16;99652.82;;;10.85;79.02
26436;BME280;15351;52.408;16.826;2023-03-25T00:46:09;99645.58;;;10.74;79.02
26436;BME280;15351;52.408;16.826;2023-03-25T00:49:05;99641.09;;;10.74;79.19
26436;BME280;15351;52.408;16.826;2023-03-25T00:51:33;99646.95;;;10.75;79.10
26436;BME280;15351;52.408;16.826;2023-03-25T00:53:59;99648.02;;;10.73;78.95
26436;BME280;15351;52.408;16.826;2023-03-25T00:56:27;99647.30;;;10.71;79.00
26436;BME280;15351;52.408;16.826;2023-03-25T00:59:04;99636.83;;;10.68;78.92
26436;BME280;15351;52.408;16.826;2023-03-25T01:01:40;99637.53;;;10.68;79.02
26436;BME280;15351;52.408;16.826;2023-03-25T01:04:32;99625.92;;;10.70;78.85
26436;BME280;15351;52.408;16.826;2023-03-25T01:07:53;99621.41;;;10.71;78.76
26436;BME280;15351;52.408;16.826;2023-03-25T01:10:29;99620.08;;;10.66;78.61
26436;BME280;15351;52.408;16.826;2023-03-25T01:13:22;99625.75;;;10.62;78.92
26436;BME280;15351;52.408;16.826;2023-03-25T01:16:29;99625.50;;;10.61;79.01
26436;BME280;15351;52.408;16.826;2023-03-25T01:19:43;99620.61;;;10.61;79.01
26436;BME280;15351;52.408;16.826;2023-03-25T01:23:06;99612.36;;;10.64;78.97
26436;BME280;15351;52.408;16.826;2023-03-25T01:26:03;99627.91;;;10.59;78.58
26436;BME280;15351;52.408;16.826;2023-03-25T01:29:35;99637.23;;;10.53;78.70
26436;BME280;15351;52.408;16.826;2023-03-25T01:32:53;99629.20;;;10.50;78.72
26436;BME280;15351;52.408;16.826;2023-03-25T01:36:00;99626.05;;;10.47;78.92
26436;BME280;15351;52.408;16.826;2023-03-25T01:38:30;99627.36;;;10.48;78.95
26436;BME280;15351;52.408;16.826;2023-03-25T01:41:21;99624.30;;;10.50;79.01
26436;BME280;15351;52.408;16.826;2023-03-25T01:53:17;99599.59;;;10.52;78.64
26436;BME280;15351;52.408;16.826;2023-03-25T01:56:04;99593.71;;;10.49;78.43
26436;BME280;15351;52.408;16.826;2023-03-25T01:58:47;99590.94;;;10.45;78.36
26436;BME280;15351;52.408;16.826;2023-03-25T02:01:52;99592.07;;;10.41;78.46
26436;BME280;15351;52.408;16.826;2023-03-25T02:04:58;99589.71;;;10.41;78.33
26436;BME280;15351;52.408;16.826;2023-03-25T02:07:41;99597.11;;;10.38;78.21
26436;BME280;15351;52.408;16.826;2023-03-25T02:10:31;99600.23;;;10.34;78.24
26436;BME280;15351;52.408;16.826;2023-03-25T02:13:05;99602.41;;;10.29;78.27
26436;BME280;15351;52.408;16.826;2023-03-25T02:25:00;99603.06;;;10.16;78.63
26436;BME280;15351;52.408;16.826;2023-03-25T02:28:05;99588.13;;;10.14;78.61
26436;BME280;15351;52.408;16.826;2023-03-25T02:31:08;99575.20;;;10.15;78.86
26436;BME280;15351;52.408;16.826;2023-03-25T02:34:31;99570.63;;;10.17;78.80
26436;BME280;15351;52.408;16.826;2023-03-25T02:37:07;99564.01;;;10.15;78.83
26436;BME280;15351;52.408;16.826;2023-03-25T02:40:12;99567.11;;;10.15;78.70
26436;BME280;15351;52.408;16.826;2023-03-25T02:43:17;99572.43;;;10.11;78.78
26436;BME280;15351;52.408;16.826;2023-03-25T02:45:57;99570.82;;;10.11;78.82
26436;BME280;15351;52.408;16.826;2023-03-25T02:48:39;99575.92;;;10.04;78.73
26436;BME280;15351;52.408;16.826;2023-03-25T02:51:15;99580.27;;;9.95;78.70
26436;BME280;15351;52.408;16.826;2023-03-25T02:53:54;99586.75;;;9.96;79.12
26436;BME280;15351;52.408;16.826;2023-03-25T02:56:37;99583.80;;;10.03;79.14
26436;BME280;15351;52.408;16.826;2023-03-25T02:59:27;99579.88;;;10.04;78.85
26436;BME280;15351;52.408;16.826;2023-03-25T03:02:20;99579.82;;;10.00;78.62
26436;BME280;15351;52.408;16.826;2023-03-25T03:05:29;99577.14;;;9.97;78.84
26436;BME280;15351;52.408;16.826;2023-03-25T03:08:42;99570.00;;;10.04;78.85
26436;BME280;15351;52.408;16.826;2023-03-25T03:14:57;99563.17;;;10.04;78.18
26436;BME280;15351;52.408;16.826;2023-03-25T03:21:07;99561.58;;;9.99;78.30
26436;BME280;15351;52.408;16.826;2023-03-25T03:24:32;99555.27;;;9.99;78.19
26436;BME280;15351;52.408;16.826;2023-03-25T03:27:30;99561.05;;;9.96;78.11
26436;BME280;15351;52.408;16.826;2023-03-25T03:30:10;99566.11;;;9.96;77.82
26436;BME280;15351;52.408;16.826;2023-03-25T03:35:31;99577.52;;;9.85;77.64
26436;BME280;15351;52.408;16.826;2023-03-25T03:38:11;99583.04;;;9.84;77.74
26436;BME280;15351;52.408;16.826;2023-03-25T03:40:53;99588.66;;;9.76;77.79
26436;BME280;15351;52.408;16.826;2023-03-25T03:46:56;99596.43;;;9.69;78.29
26436;BME280;15351;52.408;16.826;2023-03-25T03:49:36;99599.06;;;9.69;78.59
26436;BME280;15351;52.408;16.826;2023-03-25T03:52:31;99599.77;;;9.69;78.49
26436;BME280;15351;52.408;16.826;2023-03-25T03:55:13;99598.59;;;9.70;78.52
26436;BME280;15351;52.408;16.826;2023-03-25T03:58:01;99595.96;;;9.67;78.44
26436;BME280;15351;52.408;16.826;2023-03-25T04:01:27;99598.23;;;9.62;78.64
26436;BME280;15351;52.408;16.826;2023-03-25T04:04:29;99609.47;;;9.60;78.63
26436;BME280;15351;52.408;16.826;2023-03-25T04:07:31;99614.88;;;9.52;78.56
26436;BME280;15351;52.408;16.826;2023-03-25T04:10:13;99614.97;;;9.46;78.77
26436;BME280;15351;52.408;16.826;2023-03-25T04:12:57;99619.13;;;9.44;79.05
26436;BME280;15351;52.408;16.826;2023-03-25T04:15:29;99619.17;;;9.45;79.31
26436;BME280;15351;52.408;16.826;2023-03-25T04:18:19;99615.45;;;9.44;79.18
26436;BME280;15351;52.408;16.826;2023-03-25T04:20:54;99616.42;;;9.44;79.27
26436;BME280;15351;52.408;16.826;2023-03-25T04:23:41;99618.21;;;9.44;79.40
26436;BME280;15351;52.408;16.826;2023-03-25T04:26:49;99610.48;;;9.48;79.40
26436;BME280;15351;52.408;16.826;2023-03-25T04:29:22;99605.09;;;9.51;79.31
26436;BME280;15351;52.408;16.826;2023-03-25T04:32:03;99598.63;;;9.52;79.40
26436;BME280;15351;52.408;16.826;2023-03-25T04:34:31;99600.67;;;9.49;79.20
26436;BME280;15351;52.408;16.826;2023-03-25T04:37:26;99604.37;;;9.50;79.20
26436;BME280;15351;52.408;16.826;2023-03-25T04:39:55;99611.27;;;9.49;79.06
26436;BME280;15351;52.408;16.826;2023-03-25T04:42:32;99618.59;;;9.47;79.16
26436;BME280;15351;52.408;16.826;2023-03-25T04:45:30;99616.18;;;9.44;79.13
26436;BME280;15351;52.408;16.826;2023-03-25T04:48:05;99611.66;;;9.43;78.92
26436;BME280;15351;52.408;16.826;2023-03-25T04:50:34;99608.14;;;9.40;79.07
26436;BME280;15351;52.408;16.826;2023-03-25T04:53:05;99609.03;;;9.41;79.15
26436;BME280;15351;52.408;16.826;2023-03-25T04:55:36;99605.07;;;9.43;79.15
26436;BME280;15351;52.408;16.826;2023-03-25T04:58:04;99597.82;;;9.46;79.27
26436;BME280;15351;52.408;16.826;2023-03-25T05:00:32;99592.94;;;9.50;79.10
26436;BME280;15351;52.408;16.826;2023-03-25T05:03:00;99598.52;;;9.52;78.75
26436;BME280;15351;52.408;16.826;2023-03-25T05:05:31;99600.86;;;9.48;78.80
26436;BME280;15351;52.408;16.826;2023-03-25T05:07:59;99595.09;;;9.50;78.88
26436;BME280;15351;52.408;16.826;2023-03-25T05:10:40;99596.96;;;9.53;78.98
26436;BME280;15351;52.408;16.826;2023-03-25T05:13:10;99597.89;;;9.58;78.87
26436;BME280;15351;52.408;16.826;2023-03-25T05:15:39;99606.64;;;9.58;78.85
26436;BME280;15351;52.408;16.826;2023-03-25T05:18:15;99614.91;;;9.55;78.88
26436;BME280;15351;52.408;16.826;2023-03-25T05:20:46;99612.36;;;9.50;78.98
26436;BME280;15351;52.408;16.826;2023-03-25T05:23:19;99620.84;;;9.52;79.07
26436;BME280;15351;52.408;16.826;2023-03-25T05:25:58;99619.87;;;9.51;79.29
26436;BME280;15351;52.408;16.826;2023-03-25T05:28:41;99616.39;;;9.57;79.54
26436;BME280;15351;52.408;16.826;2023-03-25T05:31:28;99609.29;;;9.58;79.32
26436;BME280;15351;52.408;16.826;2023-03-25T05:34:19;99610.29;;;9.55;79.43
26436;BME280;15351;52.408;16.826;2023-03-25T05:37:30;99612.73;;;9.59;79.75
26436;BME280;15351;52.408;16.826;2023-03-25T05:40:18;99612.09;;;9.65;80.02
26436;BME280;15351;52.408;16.826;2023-03-25T05:43:09;99617.51;;;9.68;80.07
26436;BME280;15351;52.408;16.826;2023-03-25T05:45:42;99611.66;;;9.70;80.44
26436;BME280;15351;52.408;16.826;2023-03-25T05:48:21;99612.52;;;9.76;80.57
26436;BME280;15351;52.408;16.826;2023-03-25T05:51:11;99609.85;;;9.79;80.44
26436;BME280;15351;52.408;16.826;2023-03-25T05:53:47;99609.48;;;9.78;80.42
26436;BME280;15351;52.408;16.826;2023-03-25T05:56:29;99608.38;;;9.82;80.54
26436;BME280;15351;52.408;16.826;2023-03-25T05:58:57;99604.05;;;9.87;80.78
26436;BME280;15351;52.408;16.826;2023-03-25T06:01:45;99603.89;;;9.95;80.83
26436;BME280;15351;52.408;16.826;2023-03-25T06:04:23;99601.69;;;9.99;80.79
26436;BME280;15351;52.408;16.826;2023-03-25T06:07:30;99602.23;;;10.05;80.83
26436;BME280;15351;52.408;16.826;2023-03-25T06:10:00;99602.58;;;10.07;80.76
26436;BME280;15351;52.408;16.826;2023-03-25T06:12:47;99604.45;;;10.07;81.04
26436;BME280;15351;52.408;16.826;2023-03-25T06:15:16;99600.11;;;10.10;80.98
26436;BME280;15351;52.408;16.826;2023-03-25T06:17:56;99602.90;;;10.19;81.24
26436;BME280;15351;52.408;16.826;2023-03-25T06:20:47;99606.49;;;10.27;81.30
26436;BME280;15351;52.408;16.826;2023-03-25T06:23:54;99604.95;;;10.31;81.05
26436;BME280;15351;52.408;16.826;2023-03-25T06:29:04;99607.44;;;10.34;81.18
26436;BME280;15351;52.408;16.826;2023-03-25T06:31:31;99605.91;;;10.39;81.39
26436;BME280;15351;52.408;16.826;2023-03-25T06:34:03;99600.62;;;10.47;81.37
26436;BME280;15351;52.408;16.826;2023-03-25T06:36:40;99597.23;;;10.52;81.37
26436;BME280;15351;52.408;16.826;2023-03-25T06:39:11;99603.08;;;10.58;81.33
26436;BME280;15351;52.408;16.826;2023-03-25T06:41:40;99600.03;;;10.62;81.21
26436;BME280;15351;52.408;16.826;2023-03-25T06:47:30;99608.14;;;10.74;81.51
26436;BME280;15351;52.408;16.826;2023-03-25T06:50:07;99610.52;;;10.84;81.63
26436;BME280;15351;52.408;16.826;2023-03-25T06:52:42;99613.30;;;10.93;81.59
26436;BME280;15351;52.408;16.826;2023-03-25T06:55:10;99614.66;;;10.95;81.34
26436;BME280;15351;52.408;16.826;2023-03-25T06:57:55;99614.20;;;10.95;81.06
26436;BME280;15351;52.408;16.826;2023-03-25T07:00:27;99607.64;;;10.90;81.07
26436;BME280;15351;52.408;16.826;2023-03-25T07:03:00;99611.28;;;10.88;81.18
26436;BME280;15351;52.408;16.826;2023-03-25T07:05:27;99601.20;;;10.88;81.22
26436;BME280;15351;52.408;16.826;2023-03-25T07:07:56;99600.77;;;10.93;81.36
26436;BME280;15351;52.408;16.826;2023-03-25T07:10:45;99602.00;;;11.02;81.45
26436;BME280;15351;52.408;16.826;2023-03-25T07:13:14;99596.42;;;11.12;81.15
26436;BME280;15351;52.408;16.826;2023-03-25T07:15:46;99593.91;;;11.17;81.05
26436;BME280;15351;52.408;16.826;2023-03-25T07:18:14;99593.50;;;11.20;81.05
26436;BME280;15351;52.408;16.826;2023-03-25T07:20:41;99594.98;;;11.29;81.20
26436;BME280;15351;52.408;16.826;2023-03-25T07:23:11;99593.08;;;11.36;81.12
26436;BME280;15351;52.408;16.826;2023-03-25T07:25:42;99596.23;;;11.42;81.30
26436;BME280;15351;52.408;16.826;2023-03-25T07:28:10;99593.07;;;11.50;81.20
26436;BME280;15351;52.408;16.826;2023-03-25T07:30:43;99596.04;;;11.57;81.02
26436;BME280;15351;52.408;16.826;2023-03-25T07:33:14;99595.09;;;11.57;80.70
26436;BME280;15351;52.408;16.826;2023-03-25T07:36:04;99597.77;;;11.59;80.77
26436;BME280;15351;52.408;16.826;2023-03-25T07:38:33;99598.01;;;11.68;80.98
26436;BME280;15351;52.408;16.826;2023-03-25T07:41:17;99592.20;;;11.74;80.93
26436;BME280;15351;52.408;16.826;2023-03-25T07:44:08;99591.27;;;11.83;80.88
26436;BME280;15351;52.408;16.826;2023-03-25T07:46:52;99588.44;;;11.92;80.66
26436;BME280;15351;52.408;16.826;2023-03-25T07:49:19;99584.77;;;12.03;80.67
26436;BME280;15351;52.408;16.826;2023-03-25T07:51:58;99583.00;;;12.18;80.79
26436;BME280;15351;52.408;16.826;2023-03-25T07:54:25;99581.48;;;12.31;80.36
26436;BME280;15351;52.408;16.826;2023-03-25T07:57:02;99574.75;;;12.42;80.16
26436;BME280;15351;52.408;16.826;2023-03-25T07:59:49;99580.62;;;12.55;79.66
26436;BME280;15351;52.408;16.826;2023-03-25T08:02:15;99585.30;;;12.67;79.48
26436;BME280;15351;52.408;16.826;2023-03-25T08:04:42;99582.63;;;12.77;79.30
26436;BME280;15351;52.408;16.826;2023-03-25T08:07:19;99579.42;;;12.82;79.01
26436;BME280;15351;52.408;16.826;2023-03-25T08:09:46;99579.09;;;12.91;78.92
26436;BME280;15351;52.408;16.826;2023-03-25T08:12:14;99575.52;;;12.98;78.42
26436;BME280;15351;52.408;16.826;2023-03-25T08:14:41;99574.29;;;13.00;78.20
26436;BME280;15351;52.408;16.826;2023-03-25T08:17:20;99576.74;;;13.13;78.44
26436;BME280;15351;52.408;16.826;2023-03-25T08:19:46;99578.70;;;13.30;78.05
26436;BME280;15351;52.408;16.826;2023-03-25T08:22:16;99578.11;;;13.35;77.90
26436;BME280;15351;52.408;16.826;2023-03-25T08:24:45;99576.14;;;13.48;77.49
26436;BME280;15351;52.408;16.826;2023-03-25T08:27:14;99579.60;;;13.58;76.96
26436;BME280;15351;52.408;16.826;2023-03-25T08:29:42;99579.38;;;13.58;76.33
26436;BME280;15351;52.408;16.826;2023-03-25T08:32:14;99582.59;;;13.57;76.09
26436;BME280;15351;52.408;16.826;2023-03-25T08:34:42;99585.86;;;13.55;75.50
26436;BME280;15351;52.408;16.826;2023-03-25T08:37:39;99587.57;;;13.46;74.53
26436;BME280;15351;52.408;16.826;2023-03-25T08:40:10;99587.15;;;13.45;74.15
26436;BME280;15351;52.408;16.826;2023-03-25T08:46:29;99584.59;;;13.51;73.13
26436;BME280;15351;52.408;16.826;2023-03-25T08:49:27;99580.15;;;13.64;72.92
26436;BME280;15351;52.408;16.826;2023-03-25T08:52:07;99583.44;;;13.75;72.43
26436;BME280;15351;52.408;16.826;2023-03-25T08:54:59;99580.42;;;13.86;71.96
26436;BME280;15351;52.408;16.826;2023-03-25T08:57:47;99575.66;;;13.85;71.67
26436;BME280;15351;52.408;16.826;2023-03-25T09:00:21;99573.45;;;13.94;71.20
26436;BME280;15351;52.408;16.826;2023-03-25T09:03:22;99568.58;;;13.94;70.52
26436;BME280;15351;52.408;16.826;2023-03-25T09:06:08;99570.38;;;14.04;70.36
26436;BME280;15351;52.408;16.826;2023-03-25T09:11:44;99569.23;;;14.09;69.75
26436;BME280;15351;52.408;16.826;2023-03-25T09:14:15;99571.44;;;14.09;69.23
26436;BME280;15351;52.408;16.826;2023-03-25T09:16:54;99567.73;;;14.00;68.73
26436;BME280;15351;52.408;16.826;2023-03-25T09:19:44;99576.99;;;13.90;68.83
26436;BME280;15351;52.408;16.826;2023-03-25T09:22:49;99580.05;;;13.89;68.98
26436;BME280;15351;52.408;16.826;2023-03-25T09:25:26;99582.69;;;13.84;68.16
26436;BME280;15351;52.408;16.826;2023-03-25T09:27:56;99580.46;;;13.71;67.82
26436;BME280;15351;52.408;16.826;2023-03-25T09:30:32;99582.98;;;13.66;68.40
26436;BME280;15351;52.408;16.826;2023-03-25T09:33:00;99585.73;;;13.68;68.68
26436;BME280;15351;52.408;16.826;2023-03-25T09:35:32;99586.11;;;13.73;68.90
26436;BME280;15351;52.408;16.826;2023-03-25T09:38:00;99588.63;;;13.72;68.58
26436;BME280;15351;52.408;16.826;2023-03-25T09:40:30;99589.33;;;13.66;68.23
26436;BME280;15351;52.408;16.826;2023-03-25T09:45:44;99591.96;;;13.65;68.03
26436;BME280;15351;52.408;16.826;2023-03-25T09:48:35;99591.85;;;13.61;67.90
26436;BME280;15351;52.408;16.826;2023-03-25T09:51:34;99594.38;;;13.65;67.53
26436;BME280;15351;52.408;16.826;2023-03-25T09:54:15;99595.95;;;13.75;67.28
26436;BME280;15351;52.408;16.826;2023-03-25T09:56:43;99594.85;;;13.80;66.57
26436;BME280;15351;52.408;16.826;2023-03-25T09:59:24;99591.73;;;13.86;66.77
26436;BME280;15351;52.408;16.826;2023-03-25T10:10:41;99572.17;;;14.76;63.77
26436;BME280;15351;52.408;16.826;2023-03-25T10:13:49;99570.50;;;14.66;63.65
26436;BME280;15351;52.408;16.826;2023-03-25T10:19:37;99560.32;;;14.57;64.16
26436;BME280;15351;52.408;16.826;2023-03-25T10:22:23;99562.33;;;14.54;64.14
26436;BME280;15351;52.408;16.826;2023-03-25T10:24:59;99567.02;;;14.48;64.35
26436;BME280;15351;52.408;16.826;2023-03-25T10:27:45;99564.80;;;14.45;64.08
26436;BME280;15351;52.408;16.826;2023-03-25T10:30:29;99565.67;;;14.38;63.72
26436;BME280;15351;52.408;16.826;2023-03-25T10:33:01;99568.27;;;14.27;63.28
26436;BME280;15351;52.408;16.826;2023-03-25T10:35:39;99566.91;;;14.17;63.44
26436;BME280;15351;52.408;16.826;2023-03-25T10:38:52;99557.81;;;14.12;63.59
26436;BME280;15351;52.408;16.826;2023-03-25T10:41:27;99559.17;;;14.09;63.76
26436;BME280;15351;52.408;16.826;2023-03-25T10:44:13;99568.68;;;14.02;63.92
26436;BME280;15351;52.408;16.826;2023-03-25T10:50:25;99598.02;;;13.70;66.24
26436;BME280;15351;52.408;16.826;2023-03-25T10:52:55;99586.06;;;13.34;67.78
26436;BME280;15351;52.408;16.826;2023-03-25T10:55:26;99578.84;;;13.07;69.55
26436;BME280;15351;52.408;16.826;2023-03-25T10:57:54;99569.97;;;12.87;70.71
26436;BME280;15351;52.408;16.826;2023-03-25T11:00:22;99568.27;;;12.78;71.48
26436;BME280;15351;52.408;16.826;2023-03-25T11:05:44;99570.74;;;12.60;72.60
26436;BME280;15351;52.408;16.826;2023-03-25T11:08:26;99577.34;;;12.56;73.20
26436;BME280;15351;52.408;16.826;2023-03-25T11:11:13;99575.83;;;12.49;73.56
26436;BME280;15351;52.408;16.826;2023-03-25T11:13:40;99582.83;;;12.43;74.02
26436;BME280;15351;52.408;16.826;2023-03-25T11:16:12;99585.15;;;12.41;74.64
26436;BME280;15351;52.408;16.826;2023-03-25T11:18:38;99597.42;;;12.41;75.02
26436;BME280;15351;52.408;16.826;2023-03-25T11:21:14;99603.04;;;12.34;74.90
26436;BME280;15351;52.408;16.826;2023-03-25T11:23:50;99605.34;;;12.21;74.94
26436;BME280;15351;52.408;16.826;2023-03-25T11:26:23;99611.55;;;12.05;75.22
26436;BME280;15351;52.408;16.826;2023-03-25T11:28:54;99608.40;;;11.93;75.58
26436;BME280;15351;52.408;16.826;2023-03-25T11:31:25;99608.03;;;11.78;75.84
26436;BME280;15351;52.408;16.826;2023-03-25T11:34:31;99598.92;;;11.71;76.12
26436;BME280;15351;52.408;16.826;2023-03-25T11:37:21;99599.43;;;11.60;76.60
26436;BME280;15351;52.408;16.826;2023-03-25T11:39:52;99585.67;;;11.59;77.12
26436;BME280;15351;52.408;16.826;2023-03-25T11:44:50;99572.23;;;12.02;78.63
26436;BME280;15351;52.408;16.826;2023-03-25T11:47:34;99569.91;;;12.36;79.58
26436;BME280;15351;52.408;16.826;2023-03-25T11:50:06;99565.73;;;12.73;80.64
26436;BME280;15351;52.408;16.826;2023-03-25T11:52:43;99563.73;;;13.06;80.84
26436;BME280;15351;52.408;16.826;2023-03-25T11:55:18;99559.39;;;13.43;81.10
26436;BME280;15351;52.408;16.826;2023-03-25T12:00:39;99553.61;;;13.84;79.75
26436;BME280;15351;52.408;16.826;2023-03-25T12:03:16;99553.58;;;14.04;78.53
26436;BME280;15351;52.408;16.826;2023-03-25T12:05:57;99542.76;;;14.17;77.33
26436;BME280;15351;52.408;16.826;2023-03-25T12:09:08;99529.92;;;14.36;76.23
26436;BME280;15351;52.408;16.826;2023-03-25T12:15:36;99522.64;;;14.75;75.15
26436;BME280;15351;52.408;16.826;2023-03-25T12:29:17;99515.39;;;15.35;71.75
26436;BME280;15351;52.408;16.826;2023-03-25T12:38:55;99510.98;;;15.19;66.77
26436;BME280;15351;52.408;16.826;2023-03-25T12:42:07;99507.88;;;14.95;66.18
26436;BME280;15351;52.408;16.826;2023-03-25T12:56:42;99493.09;;;14.71;67.19
26436;BME280;15351;52.408;16.826;2023-03-25T13:06:35;99479.02;;;15.38;65.90
26436;BME280;15351;52.408;16.826;2023-03-25T13:12:59;99473.89;;;15.30;64.71
26436;BME280;15351;52.408;16.826;2023-03-25T13:16:19;99479.63;;;15.16;63.63
26436;BME280;15351;52.408;16.826;2023-03-25T13:19:20;99494.73;;;14.88;63.38
26436;BME280;15351;52.408;16.826;2023-03-25T13:29:25;99555.35;;;13.44;67.29
26436;BME280;15351;52.408;16.826;2023-03-25T13:32:23;99542.84;;;13.24;68.60
26436;BME280;15351;52.408;16.826;2023-03-25T13:36:23;99529.10;;;13.22;69.61
26436;BME280;15351;52.408;16.826;2023-03-25T13:40:25;99519.05;;;13.34;71.09
26436;BME280;15351;52.408;16.826;2023-03-25T13:50:30;99505.21;;;13.75;73.34
26436;BME280;15351;52.408;16.826;2023-03-25T13:53:38;99504.69;;;13.85;73.26
26436;BME280;15351;52.408;16.826;2023-03-25T14:19:46;99501.70;;;13.15;72.72
26436;BME280;15351;52.408;16.826;2023-03-25T14:32:59;99490.88;;;13.22;74.79
26436;BME280;15351;52.408;16.826;2023-03-25T14:36:01;99486.02;;;13.30;75.08
26436;BME280;15351;52.408;16.826;2023-03-25T14:42:58;99481.58;;;13.65;74.18
26436;BME280;15351;52.408;16.826;2023-03-25T14:46:21;99486.16;;;13.70;73.29
26436;BME280;15351;52.408;16.826;2023-03-25T14:57:26;99471.09;;;13.90;70.20
26436;BME280;15351;52.408;16.826;2023-03-25T15:13:40;99472.19;;;13.72;68.36
26436;BME280;15351;52.408;16.826;2023-03-25T15:20:46;99466.60;;;13.61;69.06
26436;BME280;15351;52.408;16.826;2023-03-25T16:18:08;99470.13;;;13.16;63.99
26436;BME280;15351;52.408;16.826;2023-03-25T16:26:10;99480.54;;;13.05;63.93
26436;BME280;15351;52.408;16.826;2023-03-25T16:29:53;99477.60;;;13.03;64.80
26436;BME280;15351;52.408;16.826;2023-03-25T16:36:59;99491.08;;;13.05;65.20
26436;BME280;15351;52.408;16.826;2023-03-25T16:40:11;99487.29;;;13.06;65.02
26436;BME280;15351;52.408;16.826;2023-03-25T16:46:33;99492.94;;;12.99;65.24
26436;BME280;15351;52.408;16.826;2023-03-25T16:49:00;99495.86;;;12.93;65.30
26436;BME280;15351;52.408;16.826;2023-03-25T16:51:31;99503.39;;;12.86;65.49
26436;BME280;15351;52.408;16.826;2023-03-25T16:54:08;99502.64;;;12.80;65.29
26436;BME280;15351;52.408;16.826;2023-03-25T16:56:54;99507.19;;;12.76;65.09
26436;BME280;15351;52.408;16.826;2023-03-25T16:59:41;99509.52;;;12.75;65.17
26436;BME280;15351;52.408;16.826;2023-03-25T17:02:49;99511.17;;;12.71;65.08
26436;BME280;15351;52.408;16.826;2023-03-25T17:08:59;99512.63;;;12.60;65.09
26436;BME280;15351;52.408;16.826;2023-03-25T17:11:57;99518.81;;;12.55;64.96
26436;BME280;15351;52.408;16.826;2023-03-25T17:14:32;99521.65;;;12.53;64.90
26436;BME280;15351;52.408;16.826;2023-03-25T17:20:16;99524.09;;;12.51;64.80
26436;BME280;15351;52.408;16.826;2023-03-25T17:23:01;99525.86;;;12.52;64.84
26436;BME280;15351;52.408;16.826;2023-03-25T17:25:59;99527.55;;;12.48;65.07
26436;BME280;15351;52.408;16.826;2023-03-25T17:34:21;99531.92;;;12.43;65.23
26436;BME280;15351;52.408;16.826;2023-03-25T17:36:59;99530.27;;;12.43;65.23
26436;BME280;15351;52.408;16.826;2023-03-25T17:42:39;99541.09;;;12.41;65.02
26436;BME280;15351;52.408;16.826;2023-03-25T17:45:11;99548.23;;;12.35;65.11
26436;BME280;15351;52.408;16.826;2023-03-25T17:47:42;99551.02;;;12.29;65.44
26436;BME280;15351;52.408;16.826;2023-03-25T17:50:21;99552.56;;;12.23;65.78
26436;BME280;15351;52.408;16.826;2023-03-25T17:53:05;99554.81;;;12.21;65.85
26436;BME280;15351;52.408;16.826;2023-03-25T17:58:10;99554.47;;;12.20;65.78
26436;BME280;15351;52.408;16.826;2023-03-25T18:00:58;99558.45;;;12.17;65.81
26436;BME280;15351;52.408;16.826;2023-03-25T18:03:27;99558.58;;;12.10;65.87
26436;BME280;15351;52.408;16.826;2023-03-25T18:05:57;99561.24;;;12.06;65.85
26436;BME280;15351;52.408;16.826;2023-03-25T18:08:27;99558.16;;;12.08;65.66
26436;BME280;15351;52.408;16.826;2023-03-25T18:11:19;99554.34;;;12.07;65.76
26436;BME280;15351;52.408;16.826;2023-03-25T18:17:24;99548.82;;;11.96;65.77
26436;BME280;15351;52.408;16.826;2023-03-25T18:20:19;99545.66;;;11.90;65.86
26436;BME280;15351;52.408;16.826;2023-03-25T18:22:55;99545.92;;;11.87;66.06
26436;BME280;15351;52.408;16.826;2023-03-25T18:25:27;99542.43;;;11.88;66.40
26436;BME280;15351;52.408;16.826;2023-03-25T18:28:06;99538.98;;;11.88;66.56
26436;BME280;15351;52.408;16.826;2023-03-25T18:30:55;99546.66;;;11.91;66.86
26436;BME280;15351;52.408;16.826;2023-03-25T18:33:43;99545.50;;;11.92;66.99
26436;BME280;15351;52.408;16.826;2023-03-25T18:36:33;99569.98;;;11.93;66.98
26436;BME280;15351;52.408;16.826;2023-03-25T18:39:22;99593.95;;;11.87;66.86
26436;BME280;15351;52.408;16.826;2023-03-25T18:41:50;99599.80;;;11.79;67.26
26436;BME280;15351;52.408;16.826;2023-03-25T18:44:19;99604.87;;;11.70;67.76
26436;BME280;15351;52.408;16.826;2023-03-25T18:47:25;99611.52;;;11.50;68.69
26436;BME280;15351;52.408;16.826;2023-03-25T18:49:52;99619.41;;;11.36;69.98
26436;BME280;15351;52.408;16.826;2023-03-25T18:52:33;99625.80;;;11.24;70.94
26436;BME280;15351;52.408;16.826;2023-03-25T18:55:21;99620.77;;;11.17;71.79
26436;BME280;15351;52.408;16.826;2023-03-25T18:57:49;99616.48;;;11.13;72.52
26436;BME280;15351;52.408;16.826;2023-03-25T19:00:52;99607.58;;;11.07;72.99
26436;BME280;15351;52.408;16.826;2023-03-25T19:03:20;99596.86;;;11.10;73.40
26436;BME280;15351;52.408;16.826;2023-03-25T19:06:00;99592.08;;;11.14;73.76